createdAt,value
2019-01-14T00:00:30.267Z,3.00
2019-01-14T00:01:30.258Z,3.10
2019-01-14T00:02:30.244Z,3.30
2019-01-14T00:03:30.238Z,4.20
2019-01-14T00:04:30.223Z,3.90
2019-01-14T00:05:30.213Z,3.20
2019-01-14T00:06:30.202Z,3.60
2019-01-14T00:07:30.192Z,3.90
2019-01-14T00:08:30.226Z,3.00
2019-01-14T00:09:31.266Z,3.60
2019-01-14T00:10:30.163Z,4.30
2019-01-14T00:11:30.153Z,4.10
2019-01-14T00:12:30.137Z,3.40
2019-01-14T00:13:30.125Z,4.90
2019-01-14T00:14:30.112Z,4.70
2019-01-14T00:15:30.104Z,3.20
2019-01-14T00:16:30.091Z,3.90
2019-01-14T00:17:30.082Z,3.80
2019-01-14T00:18:30.070Z,3.60
2019-01-14T00:19:30.059Z,4.10
2019-01-14T00:20:30.048Z,4.00
2019-01-14T00:21:30.038Z,3.80
2019-01-14T00:22:30.024Z,4.00
2019-01-14T00:23:30.015Z,3.80
2019-01-14T00:24:30.004Z,3.80
2019-01-14T00:25:29.994Z,3.50
2019-01-14T00:26:29.982Z,4.80
2019-01-14T00:27:29.970Z,3.80
2019-01-14T00:28:29.960Z,4.10
2019-01-14T00:29:29.949Z,4.10
2019-01-14T00:33:25.817Z,3.30
2019-01-14T00:35:52.749Z,3.30
2019-01-14T00:36:52.735Z,3.80
2019-01-14T00:38:34.287Z,4.90
2019-01-14T00:39:34.262Z,4.00
2019-01-14T00:41:16.296Z,4.20
2019-01-14T00:42:16.280Z,4.00
2019-01-14T00:43:16.275Z,4.00
2019-01-14T00:44:16.260Z,3.80
2019-01-14T00:45:16.249Z,4.30
2019-01-14T00:46:16.237Z,3.80
2019-01-14T00:47:16.224Z,4.20
2019-01-14T00:48:16.214Z,3.90
2019-01-14T00:49:16.205Z,3.90
2019-01-14T00:50:16.193Z,4.00
2019-01-14T00:51:16.182Z,4.30
2019-01-14T00:52:16.176Z,4.10
2019-01-14T00:53:16.160Z,4.40
2019-01-14T00:54:16.148Z,3.80
2019-01-14T00:55:16.137Z,3.80
2019-01-14T00:56:16.125Z,3.50
2019-01-14T00:57:16.116Z,3.90
2019-01-14T00:58:16.103Z,3.80
2019-01-14T00:59:16.092Z,3.70
2019-01-14T01:00:16.083Z,3.80
2019-01-14T01:01:16.072Z,3.90
2019-01-14T01:02:16.060Z,4.00
2019-01-14T01:03:16.047Z,4.30
2019-01-14T01:04:16.039Z,4.20
2019-01-14T01:05:16.029Z,4.30
2019-01-14T01:06:16.021Z,4.70
2019-01-14T01:07:16.005Z,4.70
2019-01-14T01:08:15.994Z,4.10
2019-01-14T01:09:15.981Z,3.90
2019-01-14T01:10:15.971Z,4.80
2019-01-14T01:11:34.118Z,4.30
2019-01-14T01:12:57.500Z,4.40
2019-01-14T01:13:57.491Z,4.80
2019-01-14T01:15:39.534Z,5.70
2019-01-14T01:16:39.520Z,5.00
2019-01-14T01:17:39.515Z,4.70
2019-01-14T01:18:39.500Z,4.60
2019-01-14T01:19:39.488Z,4.40
2019-01-14T01:20:39.476Z,5.00
2019-01-14T01:21:39.467Z,4.40
2019-01-14T01:22:39.456Z,4.70
2019-01-14T01:23:39.444Z,4.40
2019-01-14T01:24:39.435Z,4.50
2019-01-14T01:25:39.436Z,3.90
2019-01-14T01:26:39.418Z,4.70
2019-01-14T01:27:39.409Z,4.00
2019-01-14T01:28:39.397Z,4.50
2019-01-14T01:29:39.379Z,4.30
2019-01-14T01:30:39.418Z,5.20
2019-01-14T01:31:39.360Z,4.30
2019-01-14T01:32:39.344Z,4.00
2019-01-14T01:33:39.336Z,4.10
2019-01-14T01:34:39.323Z,4.50
2019-01-14T01:35:39.311Z,4.50
2019-01-14T01:36:39.301Z,4.60
2019-01-14T01:37:39.291Z,4.10
2019-01-14T01:38:39.277Z,4.40
2019-01-14T01:39:39.275Z,5.30
2019-01-14T01:40:39.287Z,4.50
2019-01-14T01:41:39.246Z,4.60
2019-01-14T01:42:39.236Z,5.40
2019-01-14T01:43:39.221Z,4.70
2019-01-14T01:44:39.213Z,4.70
2019-01-14T01:45:39.198Z,4.60
2019-01-14T01:46:39.189Z,4.60
2019-01-14T01:47:39.178Z,5.70
2019-01-14T01:48:39.166Z,4.50
2019-01-14T01:49:39.157Z,5.10
2019-01-14T01:50:39.145Z,4.60
2019-01-14T01:51:39.134Z,4.80
2019-01-14T01:52:39.122Z,4.60
2019-01-14T01:53:39.112Z,5.10
2019-01-14T01:54:57.234Z,4.80
2019-01-14T01:56:20.648Z,5.20
2019-01-14T01:57:20.640Z,4.60
2019-01-14T01:59:22.759Z,3.40
2019-01-14T02:00:02.661Z,4.60
2019-01-14T02:01:22.271Z,4.20
2019-01-14T02:02:44.695Z,2.90
2019-01-14T02:03:44.669Z,4.80
2019-01-14T02:04:44.655Z,5.10
2019-01-14T02:05:44.647Z,4.80
2019-01-14T02:06:44.660Z,4.90
2019-01-14T02:07:44.624Z,5.20
2019-01-14T02:08:44.616Z,5.00
2019-01-14T02:09:44.601Z,5.60
2019-01-14T02:10:44.601Z,4.50
2019-01-14T02:11:44.577Z,4.60
2019-01-14T02:12:44.577Z,4.60
2019-01-14T02:13:44.557Z,5.10
2019-01-14T02:14:44.552Z,4.90
2019-01-14T02:15:44.535Z,5.20
2019-01-14T02:16:44.523Z,4.90
2019-01-14T02:17:44.513Z,5.20
2019-01-14T02:18:44.500Z,4.70
2019-01-14T02:19:44.490Z,5.10
2019-01-14T02:20:44.480Z,5.10
2019-01-14T02:21:44.470Z,5.10
2019-01-14T02:22:44.459Z,4.80
2019-01-14T02:23:44.446Z,5.00
2019-01-14T02:24:44.435Z,5.20
2019-01-14T02:25:44.425Z,5.10
2019-01-14T02:26:44.415Z,4.50
2019-01-14T02:27:44.405Z,4.60
2019-01-14T02:28:44.391Z,4.80
2019-01-14T02:29:44.380Z,5.10
2019-01-14T02:30:44.372Z,4.80
2019-01-14T02:31:44.359Z,5.40
2019-01-14T02:32:44.374Z,4.80
2019-01-14T02:33:44.338Z,5.20
2019-01-14T02:34:44.327Z,4.60
2019-01-14T02:35:44.343Z,5.00
2019-01-14T02:36:48.528Z,4.70
2019-01-14T02:37:44.292Z,5.20
2019-01-14T02:38:44.282Z,5.20
2019-01-14T02:39:44.275Z,4.80
2019-01-14T02:40:44.259Z,4.50
2019-01-14T02:41:44.250Z,5.20
2019-01-14T02:42:44.238Z,4.50
2019-01-14T02:43:44.231Z,4.90
2019-01-14T02:44:44.225Z,4.00
2019-01-14T02:45:44.205Z,5.60
2019-01-14T02:46:44.193Z,5.50
2019-01-14T02:47:44.187Z,4.90
2019-01-14T02:48:44.172Z,5.10
2019-01-14T02:49:44.161Z,4.50
2019-01-14T02:50:44.151Z,5.10
2019-01-14T02:51:44.140Z,4.30
2019-01-14T02:52:44.129Z,4.40
2019-01-14T02:53:44.121Z,4.70
2019-01-14T02:54:44.109Z,4.90
2019-01-14T02:55:44.101Z,4.60
2019-01-14T02:56:44.086Z,4.40
2019-01-14T02:57:44.078Z,4.80
2019-01-14T02:58:44.065Z,5.40
2019-01-14T02:59:44.052Z,4.50
2019-01-14T03:00:44.042Z,4.50
2019-01-14T03:02:02.703Z,3.80
2019-01-14T03:02:44.017Z,4.00
2019-01-14T03:03:44.009Z,4.20
2019-01-14T03:04:43.997Z,3.90
2019-01-14T03:05:44.006Z,4.00
2019-01-14T03:06:43.975Z,5.10
2019-01-14T03:07:43.963Z,4.50
2019-01-14T03:08:43.952Z,4.80
2019-01-14T03:09:43.943Z,4.10
2019-01-14T03:10:43.938Z,5.00
2019-01-14T03:11:43.931Z,4.70
2019-01-14T03:12:43.910Z,4.50
2019-01-14T03:13:43.906Z,4.70
2019-01-14T03:14:43.887Z,4.50
2019-01-14T03:15:43.875Z,4.00
2019-01-14T03:16:43.864Z,4.40
2019-01-14T03:17:43.900Z,4.30
2019-01-14T03:18:43.843Z,4.60
2019-01-14T03:19:43.834Z,4.50
2019-01-14T03:20:43.824Z,4.70
2019-01-14T03:21:43.809Z,4.40
2019-01-14T03:22:43.799Z,4.40
2019-01-14T03:23:43.789Z,4.20
2019-01-14T03:24:43.775Z,4.50
2019-01-14T03:25:43.764Z,4.40
2019-01-14T03:26:43.753Z,4.40
2019-01-14T03:27:43.745Z,4.30
2019-01-14T03:28:43.734Z,4.50
2019-01-14T03:29:43.721Z,4.00
2019-01-14T03:30:43.711Z,4.70
2019-01-14T03:31:43.700Z,4.30
2019-01-14T03:32:43.694Z,4.40
2019-01-14T03:33:43.676Z,4.40
2019-01-14T03:34:43.671Z,4.30
2019-01-14T03:35:43.656Z,4.30
2019-01-14T03:36:43.643Z,4.30
2019-01-14T03:37:43.634Z,4.70
2019-01-14T03:38:43.620Z,4.10
2019-01-14T03:39:43.624Z,3.70
2019-01-14T03:40:43.602Z,4.70
2019-01-14T03:41:43.588Z,4.40
2019-01-14T03:42:43.577Z,3.80
2019-01-14T03:43:43.569Z,4.10
2019-01-14T03:44:43.555Z,3.90
2019-01-14T03:45:43.545Z,4.50
2019-01-14T03:46:43.536Z,3.80
2019-01-14T03:47:43.524Z,5.20
2019-01-14T03:48:43.512Z,4.30
2019-01-14T03:49:43.501Z,4.30
2019-01-14T03:50:43.490Z,3.60
2019-01-14T03:51:43.485Z,4.00
2019-01-14T03:52:43.482Z,4.60
2019-01-14T03:53:43.459Z,3.60
2019-01-14T03:54:43.446Z,4.80
2019-01-14T03:55:43.436Z,4.30
2019-01-14T03:56:43.425Z,3.90
2019-01-14T03:57:43.415Z,4.40
2019-01-14T03:58:43.403Z,4.60
2019-01-14T03:59:43.390Z,4.50
2019-01-14T04:00:43.397Z,4.00
2019-01-14T04:01:43.372Z,4.10
2019-01-14T04:02:43.374Z,4.10
2019-01-14T04:03:43.348Z,3.90
2019-01-14T04:05:02.968Z,4.70
2019-01-14T04:06:25.383Z,3.50
2019-01-14T04:07:46.009Z,4.50
2019-01-14T04:09:07.111Z,4.50
2019-01-14T04:10:07.086Z,4.40
2019-01-14T04:11:07.075Z,4.50
2019-01-14T04:12:07.066Z,4.10
2019-01-14T04:13:07.055Z,4.10
2019-01-14T04:14:07.042Z,4.80
2019-01-14T04:15:07.033Z,4.40
2019-01-14T04:16:07.021Z,4.20
2019-01-14T04:17:07.011Z,5.00
2019-01-14T04:18:07.000Z,4.50
2019-01-14T04:19:06.988Z,4.10
2019-01-14T04:20:06.977Z,4.30
2019-01-14T04:21:06.967Z,4.50
2019-01-14T04:22:06.957Z,4.30
2019-01-14T04:23:06.945Z,4.90
2019-01-14T04:24:06.934Z,3.80
2019-01-14T04:25:06.980Z,4.60
2019-01-14T04:26:06.912Z,4.10
2019-01-14T04:27:06.902Z,4.40
2019-01-14T04:28:06.890Z,4.40
2019-01-14T04:29:06.881Z,4.80
2019-01-14T04:30:06.869Z,4.20
2019-01-14T04:31:06.856Z,4.60
2019-01-14T04:32:06.848Z,4.60
2019-01-14T04:33:06.835Z,4.10
2019-01-14T04:34:06.826Z,4.40
2019-01-14T04:35:06.825Z,4.30
2019-01-14T04:36:06.802Z,4.70
2019-01-14T04:37:06.793Z,4.40
2019-01-14T04:38:06.780Z,3.60
2019-01-14T04:39:06.773Z,4.60
2019-01-14T04:40:08.488Z,3.90
2019-01-14T04:41:06.746Z,4.80
2019-01-14T04:42:06.737Z,3.90
2019-01-14T04:43:06.831Z,3.30
2019-01-14T04:44:06.720Z,3.60
2019-01-14T04:45:06.705Z,3.40
2019-01-14T04:46:06.692Z,3.40
2019-01-14T04:47:06.682Z,4.10
2019-01-14T04:48:06.672Z,3.50
2019-01-14T04:49:06.660Z,3.50
2019-01-14T04:50:06.657Z,3.70
2019-01-14T04:51:06.636Z,3.60
2019-01-14T04:52:06.633Z,3.70
2019-01-14T04:53:06.615Z,3.30
2019-01-14T04:54:06.611Z,3.70
2019-01-14T04:55:06.595Z,3.30
2019-01-14T04:56:06.587Z,3.60
2019-01-14T04:57:06.571Z,3.40
2019-01-14T04:58:06.567Z,3.20
2019-01-14T04:59:06.548Z,2.80
2019-01-14T05:00:06.541Z,2.80
2019-01-14T05:01:06.529Z,3.70
2019-01-14T05:02:06.517Z,3.30
2019-01-14T05:03:06.504Z,3.00
2019-01-14T05:04:06.496Z,3.10
2019-01-14T05:05:06.485Z,3.00
2019-01-14T05:06:06.475Z,3.30
2019-01-14T05:07:06.460Z,2.60
2019-01-14T05:08:06.469Z,3.10
2019-01-14T05:09:06.442Z,3.00
2019-01-14T05:10:06.427Z,3.10
2019-01-14T05:11:06.415Z,3.10
2019-01-14T05:12:06.407Z,3.80
2019-01-14T05:13:06.421Z,3.20
2019-01-14T05:14:06.387Z,3.60
2019-01-14T05:15:06.375Z,3.10
2019-01-14T05:16:06.361Z,3.10
2019-01-14T05:17:06.353Z,3.20
2019-01-14T05:18:06.340Z,3.20
2019-01-14T05:19:06.329Z,3.70
2019-01-14T05:20:06.327Z,3.80
2019-01-14T05:21:06.322Z,3.00
2019-01-14T05:22:06.298Z,3.00
2019-01-14T05:23:06.289Z,3.30
2019-01-14T05:24:06.296Z,3.10
2019-01-14T05:25:06.265Z,3.30
2019-01-14T05:26:06.256Z,3.10
2019-01-14T05:27:06.243Z,2.80
2019-01-14T05:28:06.237Z,3.50
2019-01-14T05:29:06.222Z,3.00
2019-01-14T05:30:06.209Z,2.90
2019-01-14T05:31:06.200Z,3.20
2019-01-14T05:32:06.187Z,2.90
2019-01-14T05:33:06.254Z,3.00
2019-01-14T05:34:06.195Z,3.30
2019-01-14T05:35:06.154Z,3.10
2019-01-14T05:36:06.166Z,3.30
2019-01-14T05:37:06.133Z,3.30
2019-01-14T05:38:06.134Z,3.00
2019-01-14T05:39:06.109Z,2.50
2019-01-14T05:40:06.100Z,3.20
2019-01-14T05:41:06.089Z,2.90
2019-01-14T05:42:06.094Z,3.60
2019-01-14T05:43:06.069Z,3.00
2019-01-14T05:44:06.055Z,2.80
2019-01-14T05:45:06.043Z,3.00
2019-01-14T05:46:06.035Z,3.70
2019-01-14T05:47:06.027Z,3.50
2019-01-14T05:48:06.025Z,3.70
2019-01-14T05:49:06.000Z,3.30
2019-01-14T05:50:05.993Z,3.20
2019-01-14T05:51:05.979Z,3.50
2019-01-14T05:52:05.969Z,3.00
2019-01-14T05:53:05.961Z,3.40
2019-01-14T05:54:05.946Z,3.50
2019-01-14T05:55:05.937Z,3.40
2019-01-14T05:56:05.938Z,3.20
2019-01-14T05:57:05.916Z,3.60
2019-01-14T05:58:05.905Z,3.40
2019-01-14T05:59:05.896Z,3.60
2019-01-14T06:00:05.881Z,3.70
2019-01-14T06:01:05.887Z,3.00
2019-01-14T06:02:05.859Z,3.00
2019-01-14T06:03:05.848Z,2.90
2019-01-14T06:04:05.835Z,2.60
2019-01-14T06:05:05.827Z,3.20
2019-01-14T06:06:05.833Z,2.90
2019-01-14T06:07:05.803Z,3.30
2019-01-14T06:08:05.817Z,3.00
2019-01-14T06:09:05.783Z,3.10
2019-01-14T06:10:05.771Z,2.60
2019-01-14T06:11:05.765Z,2.90
2019-01-14T06:12:05.749Z,3.00
2019-01-14T06:13:05.749Z,3.30
2019-01-14T06:14:05.726Z,2.70
2019-01-14T06:15:25.995Z,2.90
2019-01-14T06:16:47.755Z,2.80
2019-01-14T06:18:08.325Z,3.10
2019-01-14T06:19:29.287Z,3.20
2019-01-14T06:20:29.316Z,3.60
2019-01-14T06:21:59.746Z,3.00
2019-01-14T06:22:59.733Z,3.30
2019-01-14T06:24:41.771Z,3.50
2019-01-14T06:25:41.761Z,3.00
2019-01-14T06:26:41.750Z,3.70
2019-01-14T06:27:41.739Z,3.20
2019-01-14T06:28:41.731Z,3.00
2019-01-14T06:29:41.717Z,3.00
2019-01-14T06:30:41.707Z,2.80
2019-01-14T06:31:41.711Z,3.00
2019-01-14T06:32:41.683Z,3.40
2019-01-14T06:33:41.673Z,3.50
2019-01-14T06:34:41.664Z,3.40
2019-01-14T06:35:41.662Z,3.50
2019-01-14T06:36:41.645Z,3.10
2019-01-14T06:37:41.630Z,3.10
2019-01-14T06:38:41.622Z,3.70
2019-01-14T06:39:41.608Z,2.80
2019-01-14T06:40:41.600Z,3.20
2019-01-14T06:41:41.584Z,3.20
2019-01-14T06:42:41.574Z,3.20
2019-01-14T06:43:41.566Z,3.00
2019-01-14T06:44:41.552Z,3.10
2019-01-14T06:45:41.548Z,3.00
2019-01-14T06:46:41.530Z,2.90
2019-01-14T06:47:41.520Z,2.40
2019-01-14T06:48:41.508Z,2.30
2019-01-14T06:49:41.498Z,2.90
2019-01-14T06:50:41.487Z,2.30
2019-01-14T06:51:41.478Z,2.40
2019-01-14T06:52:41.519Z,2.40
2019-01-14T06:53:41.452Z,2.00
2019-01-14T06:54:41.445Z,2.10
2019-01-14T06:55:41.438Z,2.30
2019-01-14T06:56:41.420Z,2.20
2019-01-14T06:57:41.411Z,2.30
2019-01-14T06:58:41.417Z,2.10
2019-01-14T06:59:41.397Z,2.10
2019-01-14T07:00:41.381Z,2.30
2019-01-14T07:01:41.367Z,2.20
2019-01-14T07:02:41.360Z,2.30
2019-01-14T07:03:41.343Z,1.90
2019-01-14T07:04:41.336Z,2.10
2019-01-14T07:05:41.322Z,2.20
2019-01-14T07:06:41.311Z,1.80
2019-01-14T07:07:41.301Z,1.70
2019-01-14T07:08:41.289Z,1.60
2019-01-14T07:09:41.279Z,1.70
2019-01-14T07:10:41.265Z,1.90
2019-01-14T07:12:01.852Z,1.80
2019-01-14T07:13:22.795Z,1.60
2019-01-14T07:14:22.785Z,1.60
2019-01-14T07:16:04.837Z,1.80
2019-01-14T07:17:04.806Z,1.80
2019-01-14T07:18:04.806Z,1.60
2019-01-14T07:19:04.785Z,1.80
2019-01-14T07:20:04.777Z,1.90
2019-01-14T07:21:04.764Z,1.80
2019-01-14T07:22:04.752Z,2.40
2019-01-14T07:23:04.741Z,1.70
2019-01-14T07:24:04.730Z,2.20
2019-01-14T07:25:04.719Z,2.20
2019-01-14T07:26:04.709Z,2.20
2019-01-14T07:27:04.697Z,1.60
2019-01-14T07:28:04.690Z,2.30
2019-01-14T07:29:06.361Z,2.40
2019-01-14T07:30:04.666Z,1.90
2019-01-14T07:31:04.654Z,2.30
2019-01-14T07:32:04.650Z,1.90
2019-01-14T07:33:04.630Z,2.60
2019-01-14T07:34:04.618Z,2.70
2019-01-14T07:35:04.608Z,2.40
2019-01-14T07:36:04.595Z,2.60
2019-01-14T07:37:04.585Z,2.10
2019-01-14T07:38:06.941Z,2.60
2019-01-14T07:39:04.564Z,2.30
2019-01-14T07:40:05.419Z,2.30
2019-01-14T07:41:04.546Z,2.50
2019-01-14T07:42:04.535Z,2.30
2019-01-14T07:43:04.564Z,2.60
2019-01-14T07:44:04.512Z,3.00
2019-01-14T07:45:04.495Z,2.40
2019-01-14T07:46:04.485Z,2.80
2019-01-14T07:47:04.475Z,2.50
2019-01-14T07:48:04.468Z,3.40
2019-01-14T07:49:04.451Z,3.40
2019-01-14T07:50:04.440Z,2.60
2019-01-14T07:51:04.429Z,3.10
2019-01-14T07:52:04.418Z,2.60
2019-01-14T07:53:04.410Z,2.40
2019-01-14T07:54:04.396Z,2.90
2019-01-14T07:55:04.384Z,2.20
2019-01-14T07:56:04.375Z,3.00
2019-01-14T07:57:04.363Z,2.20
2019-01-14T07:58:04.353Z,2.80
2019-01-14T07:59:04.344Z,2.60
2019-01-14T08:00:04.328Z,2.40
2019-01-14T08:01:04.326Z,3.00
2019-01-14T08:02:04.307Z,4.10
2019-01-14T08:03:04.296Z,4.40
2019-01-14T08:04:04.286Z,3.80
2019-01-14T08:05:04.273Z,3.80
2019-01-14T08:06:04.263Z,4.80
2019-01-14T08:07:04.249Z,5.30
2019-01-14T08:08:04.247Z,2.70
2019-01-14T08:09:04.228Z,3.20
2019-01-14T08:10:04.217Z,2.70
2019-01-14T08:11:04.213Z,2.80
2019-01-14T08:12:04.195Z,2.60
2019-01-14T08:13:04.183Z,2.30
2019-01-14T08:14:04.173Z,2.70
2019-01-14T08:15:04.164Z,2.50
2019-01-14T08:16:04.154Z,3.00
2019-01-14T08:17:04.144Z,2.50
2019-01-14T08:18:04.127Z,2.90
2019-01-14T08:19:04.117Z,3.30
2019-01-14T08:20:04.106Z,3.30
2019-01-14T08:21:04.099Z,2.30
2019-01-14T08:22:04.083Z,2.20
2019-01-14T08:23:04.074Z,2.70
2019-01-14T08:24:04.064Z,2.20
2019-01-14T08:25:04.053Z,2.30
2019-01-14T08:26:04.039Z,2.50
2019-01-14T08:27:04.026Z,2.40
2019-01-14T08:28:04.017Z,2.60
2019-01-14T08:29:04.004Z,2.20
2019-01-14T08:30:03.993Z,2.70
2019-01-14T08:31:03.998Z,2.80
2019-01-14T08:32:03.975Z,2.70
2019-01-14T08:33:03.962Z,2.60
2019-01-14T08:34:03.953Z,2.50
2019-01-14T08:35:03.937Z,3.10
2019-01-14T08:36:03.927Z,3.10
2019-01-14T08:37:03.917Z,3.10
2019-01-14T08:38:03.904Z,2.80
2019-01-14T08:39:03.897Z,2.30
2019-01-14T08:40:03.881Z,2.90
2019-01-14T08:41:03.875Z,3.10
2019-01-14T08:42:03.860Z,2.90
2019-01-14T08:43:03.858Z,2.60
2019-01-14T08:44:03.839Z,3.10
2019-01-14T08:45:03.827Z,2.90
2019-01-14T08:46:03.815Z,3.10
2019-01-14T08:47:03.816Z,2.50
2019-01-14T08:48:03.793Z,3.00
2019-01-14T08:49:03.797Z,2.60
2019-01-14T08:50:03.774Z,2.80
2019-01-14T08:51:03.760Z,2.70
2019-01-14T08:52:03.755Z,2.20
2019-01-14T08:53:03.741Z,2.70
2019-01-14T08:54:03.727Z,2.80
2019-01-14T08:55:03.717Z,2.90
2019-01-14T08:56:03.705Z,2.80
2019-01-14T08:57:03.694Z,3.20
2019-01-14T08:58:03.687Z,3.50
2019-01-14T08:59:03.674Z,2.90
2019-01-14T09:00:03.661Z,3.20
2019-01-14T09:01:03.652Z,3.40
2019-01-14T09:02:03.637Z,3.30
2019-01-14T09:03:03.628Z,2.80
2019-01-14T09:04:03.615Z,2.80
2019-01-14T09:05:03.612Z,3.40
2019-01-14T09:06:03.595Z,2.60
2019-01-14T09:07:03.587Z,2.80
2019-01-14T09:08:03.577Z,2.30
2019-01-14T09:09:03.562Z,3.20
2019-01-14T09:10:03.550Z,2.90
2019-01-14T09:11:03.537Z,2.30
2019-01-14T09:12:03.527Z,2.70
2019-01-14T09:13:03.518Z,3.40
2019-01-14T09:14:03.505Z,2.80
2019-01-14T09:15:03.494Z,2.90
2019-01-14T09:16:03.485Z,3.10
2019-01-14T09:17:03.474Z,2.80
2019-01-14T09:18:03.464Z,2.60
2019-01-14T09:19:03.452Z,2.40
2019-01-14T09:20:03.450Z,3.20
2019-01-14T09:21:03.435Z,2.50
2019-01-14T09:22:03.429Z,2.70
2019-01-14T09:23:03.408Z,2.80
2019-01-14T09:24:03.394Z,2.90
2019-01-14T09:25:03.383Z,2.60
2019-01-14T09:26:03.371Z,2.80
2019-01-14T09:27:03.364Z,2.70
2019-01-14T09:28:03.350Z,2.60
2019-01-14T09:29:03.339Z,2.90
2019-01-14T09:30:03.327Z,2.60
2019-01-14T09:31:03.315Z,2.50
2019-01-14T09:32:03.304Z,2.00
2019-01-14T09:33:03.293Z,2.80
2019-01-14T09:34:03.283Z,2.60
2019-01-14T09:35:03.272Z,3.40
2019-01-14T09:36:03.262Z,3.30
2019-01-14T09:37:03.250Z,3.80
2019-01-14T09:38:03.239Z,2.70
2019-01-14T09:39:03.226Z,2.80
2019-01-14T09:40:03.220Z,2.90
2019-01-14T09:41:03.999Z,3.10
2019-01-14T09:42:03.201Z,2.90
2019-01-14T09:43:03.181Z,2.50
2019-01-14T09:44:03.172Z,2.90
2019-01-14T09:45:03.160Z,2.90
2019-01-14T09:46:03.149Z,2.50
2019-01-14T09:47:03.145Z,2.30
2019-01-14T09:48:03.126Z,2.10
2019-01-14T09:49:03.115Z,2.20
2019-01-14T09:50:03.108Z,2.40
2019-01-14T09:51:03.097Z,2.50
2019-01-14T09:52:03.082Z,2.60
2019-01-14T09:53:03.074Z,2.60
2019-01-14T09:54:03.060Z,2.40
2019-01-14T09:55:05.705Z,3.00
2019-01-14T09:56:03.039Z,2.70
2019-01-14T09:57:03.025Z,2.20
2019-01-14T09:58:03.017Z,3.10
2019-01-14T09:59:03.005Z,2.30
2019-01-14T10:00:02.992Z,2.90
2019-01-14T10:01:02.982Z,2.20
2019-01-14T10:02:02.972Z,2.60
2019-01-14T10:03:02.960Z,2.40
2019-01-14T10:04:02.950Z,2.00
2019-01-14T10:05:02.937Z,2.40
2019-01-14T10:06:02.925Z,2.90
2019-01-14T10:07:02.914Z,2.60
2019-01-14T10:08:02.981Z,2.40
2019-01-14T10:09:03.901Z,2.30
2019-01-14T10:10:02.884Z,2.30
2019-01-14T10:11:02.871Z,2.30
2019-01-14T10:12:02.862Z,2.60
2019-01-14T10:13:02.867Z,2.10
2019-01-14T10:14:02.837Z,2.40
2019-01-14T10:15:02.826Z,2.30
2019-01-14T10:16:02.817Z,1.90
2019-01-14T10:17:02.805Z,2.60
2019-01-14T10:18:02.795Z,2.20
2019-01-14T10:19:02.783Z,2.00
2019-01-14T10:20:02.772Z,2.30
2019-01-14T10:21:02.761Z,2.10
2019-01-14T10:22:02.749Z,2.80
2019-01-14T10:23:02.738Z,2.20
2019-01-14T10:24:02.728Z,2.60
2019-01-14T10:25:02.717Z,2.20
2019-01-14T10:26:02.703Z,2.20
2019-01-14T10:27:02.694Z,2.20
2019-01-14T10:28:02.683Z,2.50
2019-01-14T10:29:02.671Z,2.40
2019-01-14T10:30:02.662Z,2.50
2019-01-14T10:31:02.649Z,2.70
2019-01-14T10:32:02.638Z,2.30
2019-01-14T10:33:02.628Z,2.50
2019-01-14T10:34:02.620Z,2.00
2019-01-14T10:35:02.607Z,2.10
2019-01-14T10:36:02.593Z,2.30
2019-01-14T10:37:02.582Z,2.10
2019-01-14T10:38:02.571Z,2.20
2019-01-14T10:39:02.559Z,2.70
2019-01-14T10:40:02.549Z,2.50
2019-01-14T10:41:02.538Z,2.30
2019-01-14T10:42:05.042Z,2.30
2019-01-14T10:43:02.516Z,2.00
2019-01-14T10:44:02.506Z,2.20
2019-01-14T10:45:02.497Z,2.30
2019-01-14T10:46:02.483Z,2.60
2019-01-14T10:47:02.473Z,1.90
2019-01-14T10:48:02.460Z,2.30
2019-01-14T10:49:06.618Z,2.50
2019-01-14T10:50:02.441Z,2.00
2019-01-14T10:51:02.428Z,2.20
2019-01-14T10:52:02.420Z,2.60
2019-01-14T10:53:02.410Z,2.20
2019-01-14T10:54:02.398Z,2.30
2019-01-14T10:55:02.384Z,2.20
2019-01-14T10:56:02.372Z,2.10
2019-01-14T10:57:02.364Z,2.30
2019-01-14T10:58:02.349Z,2.40
2019-01-14T10:59:02.339Z,2.60
2019-01-14T11:00:02.328Z,2.10
2019-01-14T11:01:02.316Z,2.60
2019-01-14T11:02:02.304Z,2.00
2019-01-14T11:03:02.294Z,2.10
2019-01-14T11:04:02.283Z,2.40
2019-01-14T11:05:02.273Z,2.30
2019-01-14T11:06:02.260Z,2.40
2019-01-14T11:07:02.251Z,1.80
2019-01-14T11:08:02.241Z,2.40
2019-01-14T11:09:06.044Z,2.50
2019-01-14T11:10:02.217Z,2.50
2019-01-14T11:11:02.207Z,2.50
2019-01-14T11:12:02.194Z,2.70
2019-01-14T11:13:02.183Z,2.50
2019-01-14T11:14:02.171Z,1.70
2019-01-14T11:15:03.089Z,2.40
2019-01-14T11:16:02.148Z,1.70
2019-01-14T11:17:02.138Z,2.00
2019-01-14T11:18:02.128Z,1.90
2019-01-14T11:19:02.116Z,1.90
2019-01-14T11:20:02.107Z,2.20
2019-01-14T11:21:02.094Z,2.00
2019-01-14T11:22:02.083Z,2.00
2019-01-14T11:23:02.072Z,2.00
2019-01-14T11:24:02.062Z,2.40
2019-01-14T11:25:02.535Z,1.90
2019-01-14T11:26:02.037Z,1.90
2019-01-14T11:27:02.028Z,2.20
2019-01-14T11:28:02.022Z,2.10
2019-01-14T11:29:02.006Z,1.60
2019-01-14T11:30:01.997Z,2.00
2019-01-14T11:31:01.984Z,2.40
2019-01-14T11:32:01.974Z,2.10
2019-01-14T11:33:01.964Z,1.90
2019-01-14T11:34:01.949Z,1.80
2019-01-14T11:35:01.937Z,2.00
2019-01-14T11:36:01.926Z,1.80
2019-01-14T11:37:01.918Z,2.20
2019-01-14T11:38:01.910Z,2.20
2019-01-14T11:39:05.163Z,2.50
2019-01-14T11:40:01.882Z,2.60
2019-01-14T11:41:01.871Z,2.00
2019-01-14T11:42:01.860Z,1.90
2019-01-14T11:43:01.852Z,2.00
2019-01-14T11:44:01.840Z,2.10
2019-01-14T11:45:01.829Z,2.10
2019-01-14T11:46:01.816Z,2.10
2019-01-14T11:47:01.807Z,1.80
2019-01-14T11:48:01.793Z,1.90
2019-01-14T11:49:01.788Z,1.80
2019-01-14T11:50:01.777Z,1.90
2019-01-14T11:51:01.760Z,1.80
2019-01-14T11:52:01.750Z,1.90
2019-01-14T11:53:01.744Z,2.00
2019-01-14T11:54:01.727Z,1.70
2019-01-14T11:55:01.717Z,1.70
2019-01-14T11:56:01.706Z,2.10
2019-01-14T11:57:01.695Z,1.80
2019-01-14T11:58:01.686Z,1.60
2019-01-14T11:59:01.672Z,2.00
2019-01-14T12:00:01.661Z,1.60
2019-01-14T12:01:01.651Z,1.70
2019-01-14T12:02:01.639Z,2.10
2019-01-14T12:03:01.630Z,1.40
2019-01-14T12:04:01.617Z,1.70
2019-01-14T12:05:01.609Z,1.60
2019-01-14T12:06:01.595Z,1.30
2019-01-14T12:07:01.584Z,1.80
2019-01-14T12:08:01.573Z,1.40
2019-01-14T12:09:01.561Z,1.40
2019-01-14T12:10:01.550Z,1.70
2019-01-14T12:11:01.538Z,1.50
2019-01-14T12:12:01.528Z,1.40
2019-01-14T12:13:01.517Z,1.30
2019-01-14T12:14:01.506Z,1.60
2019-01-14T12:15:01.493Z,2.30
2019-01-14T12:16:01.496Z,2.80
2019-01-14T12:17:01.472Z,1.90
2019-01-14T12:18:01.461Z,2.00
2019-01-14T12:19:01.452Z,1.70
2019-01-14T12:20:01.437Z,1.80
2019-01-14T12:21:01.428Z,1.60
2019-01-14T12:22:01.421Z,1.70
2019-01-14T12:23:01.404Z,1.70
2019-01-14T12:24:01.457Z,2.00
2019-01-14T12:25:01.384Z,2.20
2019-01-14T12:26:01.377Z,1.50
2019-01-14T12:27:01.361Z,1.30
2019-01-14T12:28:01.350Z,1.50
2019-01-14T12:29:01.339Z,2.00
2019-01-14T12:30:01.330Z,2.10
2019-01-14T12:31:01.318Z,1.80
2019-01-14T12:32:01.308Z,1.70
2019-01-14T12:33:01.297Z,2.00
2019-01-14T12:34:01.281Z,1.80
2019-01-14T12:35:01.276Z,1.50
2019-01-14T12:36:01.264Z,1.70
2019-01-14T12:37:01.251Z,1.50
2019-01-14T12:38:01.239Z,1.80
2019-01-14T12:39:01.228Z,1.70
2019-01-14T12:40:01.215Z,1.70
2019-01-14T12:41:01.205Z,1.70
2019-01-14T12:42:01.197Z,1.60
2019-01-14T12:43:01.183Z,1.30
2019-01-14T12:44:01.170Z,1.60
2019-01-14T12:45:01.160Z,1.30
2019-01-14T12:46:01.148Z,1.60
2019-01-14T12:47:01.137Z,1.40
2019-01-14T12:48:01.156Z,1.90
2019-01-14T12:49:01.119Z,1.50
2019-01-14T12:50:01.176Z,1.40
2019-01-14T12:51:01.094Z,1.40
2019-01-14T12:52:01.082Z,1.60
2019-01-14T12:53:01.072Z,1.60
2019-01-14T12:54:01.064Z,1.90
2019-01-14T12:55:01.048Z,1.80
2019-01-14T12:56:01.039Z,1.70
2019-01-14T12:57:01.028Z,1.40
2019-01-14T12:58:01.016Z,1.50
2019-01-14T12:59:01.005Z,1.70
2019-01-14T13:00:00.996Z,1.40
2019-01-14T13:01:00.983Z,1.40
2019-01-14T13:02:00.970Z,1.30
2019-01-14T13:03:00.961Z,1.90
2019-01-14T13:04:00.948Z,2.00
2019-01-14T13:05:00.937Z,1.70
2019-01-14T13:06:00.930Z,1.90
2019-01-14T13:07:00.917Z,1.60
2019-01-14T13:08:00.906Z,1.40
2019-01-14T13:09:00.894Z,1.60
2019-01-14T13:10:00.883Z,1.50
2019-01-14T13:11:00.876Z,1.50
2019-01-14T13:12:00.861Z,1.30
2019-01-14T13:13:00.851Z,1.50
2019-01-14T13:14:00.847Z,1.30
2019-01-14T13:15:00.828Z,1.10
2019-01-14T13:16:00.817Z,1.20
2019-01-14T13:17:00.807Z,1.00
2019-01-14T13:18:05.284Z,1.20
2019-01-14T13:19:00.783Z,1.20
2019-01-14T13:20:00.771Z,2.10
2019-01-14T13:21:00.762Z,1.20
2019-01-14T13:22:00.750Z,1.70
2019-01-14T13:23:00.739Z,1.90
2019-01-14T13:24:00.725Z,2.30
2019-01-14T13:25:00.720Z,2.20
2019-01-14T13:26:00.705Z,1.50
2019-01-14T13:27:00.693Z,1.70
2019-01-14T13:28:00.682Z,1.40
2019-01-14T13:29:00.741Z,1.40
2019-01-14T13:30:00.661Z,1.10
2019-01-14T13:31:00.650Z,1.50
2019-01-14T13:32:00.636Z,1.10
2019-01-14T13:33:00.629Z,0.90